Terminal Aerodrome Forecast
Issued by NWS Shreveport, LA

Home | Current Version | Previous Version | Text Only | Print | Product List | Glossary On
Versions: 1 2 3 4 5 6 7 8 9 10 11 12 13 14
000
FTUS44 KSHV 040520
TAFLFK
TAF
KLFK 040520Z 0406/0506 16006KT P6SM SCT250
     FM041900 14009G16KT P6SM SCT050 SCT250
     FM050000 13006KT P6SM SCT050=

USA.gov is the U.S. government's official web portal to all federal, state and local government web resources and services.